Terminal Aerodrome Forecast
Issued by NWS

Home | Current Version | Previous Version | Text Only | Print | Product List | Glossary On
Versions: 1 2 3 4 5 6 7 8 9 10 11 12 13
290
FTUS45 KPIH 232037 AAA
TAFSUN
TAF AMD
KSUN 232037Z 2321/2418 22011KT P6SM FEW130
     FM240400 31009KT P6SM SKC WS005/35025KT
     FM240900 31009KT P6SM SKC
     FM241700 12010KT P6SM SKC=

USA.gov is the U.S. government's official web portal to all federal, state and local government web resources and services.